sensor_id;sensor_type;location;lat;lon;timestamp;pressure;altitude;pressure_sealevel;temperature;humidity
56514;BME280;62152;52.078;8.414;2023-04-08T00:01:54;100750.13;;;17.81;48.20
56514;BME280;62152;52.078;8.414;2023-04-08T00:05:55;100745.78;;;17.80;48.42
56514;BME280;62152;52.078;8.414;2023-04-08T00:09:58;100741.09;;;17.80;48.23
56514;BME280;62152;52.078;8.414;2023-04-08T00:13:59;100743.06;;;17.80;48.19
56514;BME280;62152;52.078;8.414;2023-04-08T00:18:00;100750.13;;;17.81;48.42
56514;BME280;62152;52.078;8.414;2023-04-08T00:22:01;100744.22;;;17.79;48.29
56514;BME280;62152;52.078;8.414;2023-04-08T00:26:03;100743.06;;;17.80;48.06
56514;BME280;62152;52.078;8.414;2023-04-08T00:30:05;100745.00;;;17.79;48.45
56514;BME280;62152;52.078;8.414;2023-04-08T00:34:06;100747.75;;;17.79;48.30
56514;BME280;62152;52.078;8.414;2023-04-08T00:38:07;100754.03;;;17.80;48.76
56514;BME280;62152;52.078;8.414;2023-04-08T00:42:10;100752.44;;;17.79;48.56
56514;BME280;62152;52.078;8.414;2023-04-08T00:46:11;100757.94;;;17.79;48.56
56514;BME280;62152;52.078;8.414;2023-04-08T00:50:12;100766.16;;;17.79;48.41
56514;BME280;62152;52.078;8.414;2023-04-08T00:54:13;100763.41;;;17.79;48.02
56514;BME280;62152;52.078;8.414;2023-04-08T00:58:17;100755.19;;;17.79;48.90
56514;BME280;62152;52.078;8.414;2023-04-08T01:02:27;100762.63;;;17.78;48.69
56514;BME280;62152;52.078;8.414;2023-04-08T01:06:40;100760.66;;;17.79;48.51
56514;BME280;62152;52.078;8.414;2023-04-08T01:10:50;100757.94;;;17.79;48.50
56514;BME280;62152;52.078;8.414;2023-04-08T01:15:03;100755.19;;;17.79;48.64
56514;BME280;62152;52.078;8.414;2023-04-08T01:19:07;100752.75;;;17.77;48.41
56514;BME280;62152;52.078;8.414;2023-04-08T01:23:21;100758.25;;;17.77;48.42
56514;BME280;62152;52.078;8.414;2023-04-08T01:27:27;100771.97;;;17.77;48.50
56514;BME280;62152;52.078;8.414;2023-04-08T01:31:31;100760.19;;;17.76;48.77
56514;BME280;62152;52.078;8.414;2023-04-08T01:35:34;100766.47;;;17.77;48.51
56514;BME280;62152;52.078;8.414;2023-04-08T01:39:38;100763.75;;;17.77;48.38
56514;BME280;62152;52.078;8.414;2023-04-08T01:43:43;100763.75;;;17.77;48.50
56514;BME280;62152;52.078;8.414;2023-04-08T01:47:46;100762.94;;;17.76;48.70
56514;BME280;62152;52.078;8.414;2023-04-08T01:51:50;100772.31;;;17.75;48.77
56514;BME280;62152;52.078;8.414;2023-04-08T01:56:01;100774.72;;;17.77;48.70
56514;BME280;62152;52.078;8.414;2023-04-08T02:00:09;100766.84;;;17.75;48.77
56514;BME280;62152;52.078;8.414;2023-04-08T02:04:20;100769.59;;;17.75;48.42
56514;BME280;62152;52.078;8.414;2023-04-08T02:08:21;100772.31;;;17.75;48.29
56514;BME280;62152;52.078;8.414;2023-04-08T02:12:22;100766.84;;;17.75;48.77
56514;BME280;62152;52.078;8.414;2023-04-08T02:16:30;100772.31;;;17.75;48.39
56514;BME280;62152;52.078;8.414;2023-04-08T02:20:37;100773.91;;;17.76;48.90
56514;BME280;62152;52.078;8.414;2023-04-08T02:24:43;100771.53;;;17.75;48.53
56514;BME280;62152;52.078;8.414;2023-04-08T02:28:48;100778.59;;;17.76;48.28
56514;BME280;62152;52.078;8.414;2023-04-08T02:32:53;100777.38;;;17.73;48.29
56514;BME280;62152;52.078;8.414;2023-04-08T02:36:56;100769.94;;;17.74;48.93
56514;BME280;62152;52.078;8.414;2023-04-08T02:40:57;100776.22;;;17.74;48.60
56514;BME280;62152;52.078;8.414;2023-04-08T02:44:58;100771.53;;;17.75;48.16
56514;BME280;62152;52.078;8.414;2023-04-08T02:49:00;100782.50;;;17.75;48.56
56514;BME280;62152;52.078;8.414;2023-04-08T02:53:01;100788.00;;;17.75;48.99
56514;BME280;62152;52.078;8.414;2023-04-08T02:57:04;100789.94;;;17.74;48.46
56514;BME280;62152;52.078;8.414;2023-04-08T03:01:06;100786.41;;;17.74;48.06
56514;BME280;62152;52.078;8.414;2023-04-08T03:05:09;100799.31;;;17.73;48.64
56514;BME280;62152;52.078;8.414;2023-04-08T03:09:10;100792.69;;;17.74;48.51
56514;BME280;62152;52.078;8.414;2023-04-08T03:13:11;100798.16;;;17.74;48.47
56514;BME280;62152;52.078;8.414;2023-04-08T03:17:12;100795.44;;;17.74;48.78
56514;BME280;62152;52.078;8.414;2023-04-08T03:21:14;100793.03;;;17.73;48.44
56514;BME280;62152;52.078;8.414;2023-04-08T03:25:15;100793.84;;;17.73;48.72
56514;BME280;62152;52.078;8.414;2023-04-08T03:29:16;100792.25;;;17.72;48.22
56514;BME280;62152;52.078;8.414;2023-04-08T03:33:17;100788.34;;;17.73;48.31
56514;BME280;62152;52.078;8.414;2023-04-08T03:37:19;100791.09;;;17.73;48.24
56514;BME280;62152;52.078;8.414;2023-04-08T03:41:20;100796.56;;;17.73;48.18
56514;BME280;62152;52.078;8.414;2023-04-08T03:45:21;100789.50;;;17.72;48.80
56514;BME280;62152;52.078;8.414;2023-04-08T03:49:22;100797.38;;;17.74;48.58
56514;BME280;62152;52.078;8.414;2023-04-08T03:53:24;100804.81;;;17.73;48.89
56514;BME280;62152;52.078;8.414;2023-04-08T03:57:25;100807.56;;;17.73;48.64
56514;BME280;62152;52.078;8.414;2023-04-08T04:01:25;100816.59;;;17.74;48.70
56514;BME280;62152;52.078;8.414;2023-04-08T04:05:26;100805.16;;;17.72;48.72
56514;BME280;62152;52.078;8.414;2023-04-08T04:09:28;100812.25;;;17.73;48.81
56514;BME280;62152;52.078;8.414;2023-04-08T04:13:29;100806.75;;;17.73;48.79
56514;BME280;62152;52.078;8.414;2023-04-08T04:17:30;100811.44;;;17.72;48.80
56514;BME280;62152;52.078;8.414;2023-04-08T04:21:31;100811.81;;;17.71;48.77
56514;BME280;62152;52.078;8.414;2023-04-08T04:25:33;100810.28;;;17.73;48.67
56514;BME280;62152;52.078;8.414;2023-04-08T04:29:34;100814.19;;;17.72;48.43
56514;BME280;62152;52.078;8.414;2023-04-08T04:33:35;100814.19;;;17.72;48.57
56514;BME280;62152;52.078;8.414;2023-04-08T04:37:35;100816.94;;;17.72;48.48
56514;BME280;62152;52.078;8.414;2023-04-08T04:41:38;100819.19;;;17.70;48.62
56514;BME280;62152;52.078;8.414;2023-04-08T04:45:38;100813.41;;;17.72;48.53
56514;BME280;62152;52.078;8.414;2023-04-08T04:49:39;100811.44;;;17.72;48.72
56514;BME280;62152;52.078;8.414;2023-04-08T04:53:40;100810.94;;;17.70;48.78
56514;BME280;62152;52.078;8.414;2023-04-08T04:57:42;100819.69;;;17.72;48.60
56514;BME280;62152;52.078;8.414;2023-04-08T05:01:43;100822.44;;;17.72;49.07
56514;BME280;62152;52.078;8.414;2023-04-08T05:05:44;100822.78;;;17.71;48.31
56514;BME280;62152;52.078;8.414;2023-04-08T05:09:45;100831.81;;;17.71;48.63
56514;BME280;62152;52.078;8.414;2023-04-08T05:13:47;100834.84;;;17.70;48.90
56514;BME280;62152;52.078;8.414;2023-04-08T05:17:48;100840.84;;;17.72;48.82
56514;BME280;62152;52.078;8.414;2023-04-08T05:21:48;100840.31;;;17.70;48.86
56514;BME280;62152;52.078;8.414;2023-04-08T05:25:49;100841.13;;;17.70;48.71
56514;BME280;62152;52.078;8.414;2023-04-08T05:29:51;100845.81;;;17.70;48.82
56514;BME280;62152;52.078;8.414;2023-04-08T05:33:52;100843.88;;;17.70;48.42
56514;BME280;62152;52.078;8.414;2023-04-08T05:37:53;100848.56;;;17.70;48.54
56514;BME280;62152;52.078;8.414;2023-04-08T05:41:54;100856.78;;;17.70;48.71
56514;BME280;62152;52.078;8.414;2023-04-08T05:45:56;100855.69;;;17.71;48.71
56514;BME280;62152;52.078;8.414;2023-04-08T05:49:57;100856.78;;;17.70;48.28
56514;BME280;62152;52.078;8.414;2023-04-08T05:53:58;100860.69;;;17.69;48.84
56514;BME280;62152;52.078;8.414;2023-04-08T05:57:59;100863.44;;;17.69;48.92
56514;BME280;62152;52.078;8.414;2023-04-08T06:02:01;100864.22;;;17.69;48.89
56514;BME280;62152;52.078;8.414;2023-04-08T06:06:02;100866.97;;;17.69;48.59
56514;BME280;62152;52.078;8.414;2023-04-08T06:10:04;100865.38;;;17.68;48.61
56514;BME280;62152;52.078;8.414;2023-04-08T06:14:04;100878.75;;;17.70;48.82
56514;BME280;62152;52.078;8.414;2023-04-08T06:18:07;100892.81;;;17.68;48.44
56514;BME280;62152;52.078;8.414;2023-04-08T06:22:07;100888.13;;;17.69;48.76
56514;BME280;62152;52.078;8.414;2023-04-08T06:26:08;100908.91;;;17.70;48.43
56514;BME280;62152;52.078;8.414;2023-04-08T06:30:10;100901.84;;;17.69;48.53
56514;BME280;62152;52.078;8.414;2023-04-08T06:34:12;100909.28;;;17.68;48.49
56514;BME280;62152;52.078;8.414;2023-04-08T06:38:13;100907.81;;;17.71;48.57
56514;BME280;62152;52.078;8.414;2023-04-08T06:42:14;100911.38;;;17.71;48.72
56514;BME280;62152;52.078;8.414;2023-04-08T06:46:28;100925.88;;;17.72;48.50
56514;BME280;62152;52.078;8.414;2023-04-08T06:50:30;100928.28;;;17.73;48.24
56514;BME280;62152;52.078;8.414;2023-04-08T06:54:31;100932.97;;;17.73;48.78
56514;BME280;62152;52.078;8.414;2023-04-08T06:58:32;100940.41;;;17.72;48.47
56514;BME280;62152;52.078;8.414;2023-04-08T07:02:33;100943.13;;;17.72;48.55
56514;BME280;62152;52.078;8.414;2023-04-08T07:06:35;100951.81;;;17.74;48.51
56514;BME280;62152;52.078;8.414;2023-04-08T07:10:36;100950.56;;;17.72;48.90
56514;BME280;62152;52.078;8.414;2023-04-08T07:14:37;100954.13;;;17.72;48.86
56514;BME280;62152;52.078;8.414;2023-04-08T07:18:38;100953.75;;;17.74;48.48
56514;BME280;62152;52.078;8.414;2023-04-08T07:22:40;100959.25;;;17.74;48.86
56514;BME280;62152;52.078;8.414;2023-04-08T07:26:41;100962.78;;;17.74;48.74
56514;BME280;62152;52.078;8.414;2023-04-08T07:30:41;100965.53;;;17.74;48.86
56514;BME280;62152;52.078;8.414;2023-04-08T07:34:42;100970.22;;;17.74;48.69
56514;BME280;62152;52.078;8.414;2023-04-08T07:38:44;100960.06;;;17.74;48.29
56514;BME280;62152;52.078;8.414;2023-04-08T07:42:45;100962.78;;;17.74;48.36
56514;BME280;62152;52.078;8.414;2023-04-08T07:46:46;100958.91;;;17.75;48.39
56514;BME280;62152;52.078;8.414;2023-04-08T07:50:47;100971.47;;;17.76;48.75
56514;BME280;62152;52.078;8.414;2023-04-08T07:54:49;100971.47;;;17.76;48.66
56514;BME280;62152;52.078;8.414;2023-04-08T07:58:50;100973.91;;;17.78;48.32
56514;BME280;62152;52.078;8.414;2023-04-08T08:02:51;100978.59;;;17.77;48.23
56514;BME280;62152;52.078;8.414;2023-04-08T08:06:51;100975.00;;;17.77;48.51
56514;BME280;62152;52.078;8.414;2023-04-08T08:10:54;100991.81;;;17.75;48.48
56514;BME280;62152;52.078;8.414;2023-04-08T08:14:54;100996.16;;;17.76;48.25
56514;BME280;62152;52.078;8.414;2023-04-08T08:18:55;100996.16;;;17.76;48.58
56514;BME280;62152;52.078;8.414;2023-04-08T08:22:56;100996.97;;;17.77;48.31
56514;BME280;62152;52.078;8.414;2023-04-08T08:26:59;100992.31;;;17.77;48.31
56514;BME280;62152;52.078;8.414;2023-04-08T08:31:00;100991.81;;;17.75;48.58
56514;BME280;62152;52.078;8.414;2023-04-08T08:35:01;100986.34;;;17.75;48.71
56514;BME280;62152;52.078;8.414;2023-04-08T08:39:01;100996.63;;;17.79;48.53
56514;BME280;62152;52.078;8.414;2023-04-08T08:43:04;101004.88;;;17.79;48.41
56514;BME280;62152;52.078;8.414;2023-04-08T08:47:05;100996.63;;;17.79;48.22
56514;BME280;62152;52.078;8.414;2023-04-08T08:51:07;101006.81;;;17.78;48.22
56514;BME280;62152;52.078;8.414;2023-04-08T08:55:08;101009.22;;;17.80;48.04
56514;BME280;62152;52.078;8.414;2023-04-08T08:59:10;101015.50;;;17.80;48.40
56514;BME280;62152;52.078;8.414;2023-04-08T09:03:16;101012.41;;;17.82;48.36
56514;BME280;62152;52.078;8.414;2023-04-08T09:07:23;101014.47;;;17.85;48.09
56514;BME280;62152;52.078;8.414;2023-04-08T09:11:25;101009.00;;;17.85;48.25
56514;BME280;62152;52.078;8.414;2023-04-08T09:15:27;101014.47;;;17.85;48.62
56514;BME280;62152;52.078;8.414;2023-04-08T09:19:28;101016.06;;;17.86;48.06
56514;BME280;62152;52.078;8.414;2023-04-08T09:23:47;101021.22;;;17.87;48.17
56514;BME280;62152;52.078;8.414;2023-04-08T09:27:49;101028.66;;;17.87;48.42
56514;BME280;62152;52.078;8.414;2023-04-08T09:31:55;101030.94;;;17.85;48.52
56514;BME280;62152;52.078;8.414;2023-04-08T09:35:57;101019.13;;;17.84;48.06
56514;BME280;62152;52.078;8.414;2023-04-08T09:39:57;101025.44;;;17.85;48.11
56514;BME280;62152;52.078;8.414;2023-04-08T09:44:02;101038.03;;;17.86;48.07
56514;BME280;62152;52.078;8.414;2023-04-08T09:48:10;101036.88;;;17.87;48.15
56514;BME280;62152;52.078;8.414;2023-04-08T09:52:20;101031.38;;;17.87;48.26
56514;BME280;62152;52.078;8.414;2023-04-08T09:56:26;101029.09;;;17.89;48.37
56514;BME280;62152;52.078;8.414;2023-04-08T10:00:39;101030.69;;;17.90;48.27
56514;BME280;62152;52.078;8.414;2023-04-08T10:04:51;101037.69;;;17.87;48.21
56514;BME280;62152;52.078;8.414;2023-04-08T10:08:55;101032.53;;;17.86;47.98
56514;BME280;62152;52.078;8.414;2023-04-08T10:12:57;101040.41;;;17.87;48.50
56514;BME280;62152;52.078;8.414;2023-04-08T10:17:23;101047.06;;;17.86;48.59
56514;BME280;62152;52.078;8.414;2023-04-08T10:21:37;101046.25;;;17.86;48.14
56514;BME280;62152;52.078;8.414;2023-04-08T10:25:39;101061.94;;;17.85;48.18
56514;BME280;62152;52.078;8.414;2023-04-08T10:29:41;101060.44;;;17.88;48.16
56514;BME280;62152;52.078;8.414;2023-04-08T10:33:41;101056.09;;;17.87;48.14
56514;BME280;62152;52.078;8.414;2023-04-08T10:37:44;101058.03;;;17.86;48.03
56514;BME280;62152;52.078;8.414;2023-04-08T10:41:46;101067.88;;;17.87;48.29
56514;BME280;62152;52.078;8.414;2023-04-08T10:45:48;101055.63;;;17.85;48.23
56514;BME280;62152;52.078;8.414;2023-04-08T10:49:53;101049.81;;;17.86;48.30
56514;BME280;62152;52.078;8.414;2023-04-08T10:53:55;101056.44;;;17.85;48.07
56514;BME280;62152;52.078;8.414;2023-04-08T10:58:05;101058.38;;;17.85;48.36
56514;BME280;62152;52.078;8.414;2023-04-08T11:02:12;101054.94;;;17.88;47.99
56514;BME280;62152;52.078;8.414;2023-04-08T11:06:13;101058.03;;;17.86;48.37
56514;BME280;62152;52.078;8.414;2023-04-08T11:10:15;101054.50;;;17.86;48.29
56514;BME280;62152;52.078;8.414;2023-04-08T11:14:16;101063.88;;;17.85;48.41
56514;BME280;62152;52.078;8.414;2023-04-08T11:18:18;101058.03;;;17.86;48.39
56514;BME280;62152;52.078;8.414;2023-04-08T11:22:20;101053.34;;;17.87;47.89
56514;BME280;62152;52.078;8.414;2023-04-08T11:26:24;101063.53;;;17.86;48.07
56514;BME280;62152;52.078;8.414;2023-04-08T11:30:25;101068.31;;;17.89;48.49
56514;BME280;62152;52.078;8.414;2023-04-08T11:34:26;101061.34;;;17.92;48.36
56514;BME280;62152;52.078;8.414;2023-04-08T11:38:27;101060.06;;;17.89;48.41
56514;BME280;62152;52.078;8.414;2023-04-08T11:42:31;101051.84;;;17.89;48.18
56514;BME280;62152;52.078;8.414;2023-04-08T11:46:32;101060.56;;;17.91;48.12
56514;BME280;62152;52.078;8.414;2023-04-08T11:50:34;101053.56;;;17.94;48.58
56514;BME280;62152;52.078;8.414;2023-04-08T11:54:40;101059.06;;;17.94;48.01
56514;BME280;62152;52.078;8.414;2023-04-08T11:58:43;101047.28;;;17.93;48.26
56514;BME280;62152;52.078;8.414;2023-04-08T12:02:44;101058.59;;;17.92;47.98
56514;BME280;62152;52.078;8.414;2023-04-08T12:06:48;101060.56;;;17.91;48.11
56514;BME280;62152;52.078;8.414;2023-04-08T12:10:49;101055.38;;;17.90;48.44
56514;BME280;62152;52.078;8.414;2023-04-08T12:14:51;101060.56;;;17.91;48.16
56514;BME280;62152;52.078;8.414;2023-04-08T12:18:52;101061.34;;;17.92;47.89
56514;BME280;62152;52.078;8.414;2023-04-08T12:22:53;101055.88;;;17.92;47.94
56514;BME280;62152;52.078;8.414;2023-04-08T12:26:54;101061.34;;;17.92;47.98
56514;BME280;62152;52.078;8.414;2023-04-08T12:30:56;101065.22;;;17.91;48.04
56514;BME280;62152;52.078;8.414;2023-04-08T12:34:57;101065.22;;;17.91;47.89
56514;BME280;62152;52.078;8.414;2023-04-08T12:38:57;101065.56;;;17.89;48.24
56514;BME280;62152;52.078;8.414;2023-04-08T12:42:58;101067.16;;;17.90;47.93
56514;BME280;62152;52.078;8.414;2023-04-08T12:47:00;101069.09;;;17.90;47.98
56514;BME280;62152;52.078;8.414;2023-04-08T12:51:01;101068.31;;;17.89;48.59
56514;BME280;62152;52.078;8.414;2023-04-08T12:55:02;101065.22;;;17.91;48.31
56514;BME280;62152;52.078;8.414;2023-04-08T12:59:03;101067.97;;;17.91;48.51
56514;BME280;62152;52.078;8.414;2023-04-08T13:03:05;101071.84;;;17.90;48.17
56514;BME280;62152;52.078;8.414;2023-04-08T13:07:06;101074.59;;;17.90;47.99
56514;BME280;62152;52.078;8.414;2023-04-08T13:11:07;101074.28;;;17.91;48.01
56514;BME280;62152;52.078;8.414;2023-04-08T13:15:09;101068.44;;;17.93;48.37
56514;BME280;62152;52.078;8.414;2023-04-08T13:19:12;101071.53;;;17.91;47.93
56514;BME280;62152;52.078;8.414;2023-04-08T13:23:12;101074.59;;;17.90;48.71
56514;BME280;62152;52.078;8.414;2023-04-08T13:27:13;101071.06;;;17.89;48.51
56514;BME280;62152;52.078;8.414;2023-04-08T13:31:14;101072.66;;;17.90;48.54
56514;BME280;62152;52.078;8.414;2023-04-08T13:35:16;101065.22;;;17.91;48.41
56514;BME280;62152;52.078;8.414;2023-04-08T13:39:17;101072.34;;;17.92;48.72
56514;BME280;62152;52.078;8.414;2023-04-08T13:43:18;101065.22;;;17.91;48.05
56514;BME280;62152;52.078;8.414;2023-04-08T13:47:19;101067.97;;;17.91;48.28
56514;BME280;62152;52.078;8.414;2023-04-08T13:51:21;101076.19;;;17.91;48.52
56514;BME280;62152;52.078;8.414;2023-04-08T13:55:22;101067.16;;;17.90;48.51
56514;BME280;62152;52.078;8.414;2023-04-08T13:59:23;101063.63;;;17.90;48.48
56514;BME280;62152;52.078;8.414;2023-04-08T14:03:24;101062.03;;;17.89;48.52
56514;BME280;62152;52.078;8.414;2023-04-08T14:07:26;101058.13;;;17.90;48.24
56514;BME280;62152;52.078;8.414;2023-04-08T14:11:27;101054.25;;;17.91;48.29
56514;BME280;62152;52.078;8.414;2023-04-08T14:15:28;101049.56;;;17.91;48.52
56514;BME280;62152;52.078;8.414;2023-04-08T14:19:28;101053.13;;;17.92;48.58
56514;BME280;62152;52.078;8.414;2023-04-08T14:23:30;101056.19;;;17.90;48.17
56514;BME280;62152;52.078;8.414;2023-04-08T14:27:31;101060.88;;;17.90;48.80
56514;BME280;62152;52.078;8.414;2023-04-08T14:31:33;101065.22;;;17.91;48.24
56514;BME280;62152;52.078;8.414;2023-04-08T14:35:34;101064.41;;;17.90;48.79
56514;BME280;62152;52.078;8.414;2023-04-08T14:39:37;101061.66;;;17.90;48.21
56514;BME280;62152;52.078;8.414;2023-04-08T14:43:37;101058.94;;;17.90;48.18
56514;BME280;62152;52.078;8.414;2023-04-08T14:47:38;101053.44;;;17.90;47.94
56514;BME280;62152;52.078;8.414;2023-04-08T14:51:39;101058.13;;;17.90;48.67
56514;BME280;62152;52.078;8.414;2023-04-08T14:55:41;101061.34;;;17.92;48.11
56514;BME280;62152;52.078;8.414;2023-04-08T14:59:42;101059.72;;;17.91;48.74
56514;BME280;62152;52.078;8.414;2023-04-08T15:03:43;101051.03;;;17.89;48.67
56514;BME280;62152;52.078;8.414;2023-04-08T15:07:44;101067.50;;;17.89;48.56
56514;BME280;62152;52.078;8.414;2023-04-08T15:11:46;101057.69;;;17.88;48.31
56514;BME280;62152;52.078;8.414;2023-04-08T15:15:47;101064.31;;;17.87;48.19
56514;BME280;62152;52.078;8.414;2023-04-08T15:19:47;101061.56;;;17.87;48.32
56514;BME280;62152;52.078;8.414;2023-04-08T15:23:48;101063.53;;;17.86;48.62
56514;BME280;62152;52.078;8.414;2023-04-08T15:27:51;101065.47;;;17.86;48.08
56514;BME280;62152;52.078;8.414;2023-04-08T15:31:51;101063.03;;;17.84;48.38
56514;BME280;62152;52.078;8.414;2023-04-08T15:35:52;101059.50;;;17.84;48.73
56514;BME280;62152;52.078;8.414;2023-04-08T15:39:53;101061.94;;;17.85;48.44
56514;BME280;62152;52.078;8.414;2023-04-08T15:43:55;101072.91;;;17.85;48.68
56514;BME280;62152;52.078;8.414;2023-04-08T15:47:56;101072.09;;;17.85;48.72
56514;BME280;62152;52.078;8.414;2023-04-08T15:51:57;101070.97;;;17.86;48.82
56514;BME280;62152;52.078;8.414;2023-04-08T15:55:57;101080.78;;;17.87;48.03
56514;BME280;62152;52.078;8.414;2023-04-08T15:59:59;101070.97;;;17.86;48.56
56514;BME280;62152;52.078;8.414;2023-04-08T16:04:00;101072.09;;;17.85;48.37
56514;BME280;62152;52.078;8.414;2023-04-08T16:08:01;101074.03;;;17.84;48.29
56514;BME280;62152;52.078;8.414;2023-04-08T16:12:02;101074.84;;;17.85;48.68
56514;BME280;62152;52.078;8.414;2023-04-08T16:16:04;101074.38;;;17.83;48.30
56514;BME280;62152;52.078;8.414;2023-04-08T16:20:06;101082.25;;;17.84;48.21
56514;BME280;62152;52.078;8.414;2023-04-08T16:24:07;101085.47;;;17.86;48.58
56514;BME280;62152;52.078;8.414;2023-04-08T16:28:08;101085.81;;;17.85;48.58
56514;BME280;62152;52.078;8.414;2023-04-08T16:32:12;101086.16;;;17.83;48.54
56514;BME280;62152;52.078;8.414;2023-04-08T16:36:13;101091.97;;;17.82;48.41
56514;BME280;62152;52.078;8.414;2023-04-08T16:40:14;101087.66;;;17.81;48.43
56514;BME280;62152;52.078;8.414;2023-04-08T16:44:15;101086.84;;;17.80;48.96
56514;BME280;62152;52.078;8.414;2023-04-08T16:48:17;101098.63;;;17.81;48.33
56514;BME280;62152;52.078;8.414;2023-04-08T16:52:18;101094.63;;;17.78;48.17
56514;BME280;62152;52.078;8.414;2023-04-08T16:56:19;101094.63;;;17.78;48.76
56514;BME280;62152;52.078;8.414;2023-04-08T17:00:19;101100.91;;;17.79;48.61
56514;BME280;62152;52.078;8.414;2023-04-08T17:04:22;101100.91;;;17.79;48.65
56514;BME280;62152;52.078;8.414;2023-04-08T17:08:22;101099.31;;;17.77;48.83
56514;BME280;62152;52.078;8.414;2023-04-08T17:12:23;101104.81;;;17.77;48.98
56514;BME280;62152;52.078;8.414;2023-04-08T17:16:24;101108.34;;;17.78;48.68
56514;BME280;62152;52.078;8.414;2023-04-08T17:20:26;101106.72;;;17.77;48.44
56514;BME280;62152;52.078;8.414;2023-04-08T17:24:27;101105.13;;;17.76;48.74
56514;BME280;62152;52.078;8.414;2023-04-08T17:28:28;101098.84;;;17.75;48.31
56514;BME280;62152;52.078;8.414;2023-04-08T17:32:29;101104.81;;;17.77;48.84
56514;BME280;62152;52.078;8.414;2023-04-08T17:36:31;101102.38;;;17.76;48.51
56514;BME280;62152;52.078;8.414;2023-04-08T17:40:31;101107.06;;;17.75;48.61
56514;BME280;62152;52.078;8.414;2023-04-08T17:44:34;101104.31;;;17.75;48.75
56514;BME280;62152;52.078;8.414;2023-04-08T17:48:35;101104.31;;;17.75;48.88
56514;BME280;62152;52.078;8.414;2023-04-08T17:52:37;101105.47;;;17.74;48.85
56514;BME280;62152;52.078;8.414;2023-04-08T17:56:38;101108.56;;;17.73;48.53
56514;BME280;62152;52.078;8.414;2023-04-08T18:00:38;101118.38;;;17.74;49.01
56514;BME280;62152;52.078;8.414;2023-04-08T18:04:39;101114.84;;;17.73;48.89
56514;BME280;62152;52.078;8.414;2023-04-08T18:08:41;101114.84;;;17.73;48.42
56514;BME280;62152;52.078;8.414;2023-04-08T18:12:42;101110.50;;;17.72;48.78
56514;BME280;62152;52.078;8.414;2023-04-08T18:16:43;101117.59;;;17.73;48.57
56514;BME280;62152;52.078;8.414;2023-04-08T18:20:44;101135.19;;;17.72;48.53
56514;BME280;62152;52.078;8.414;2023-04-08T18:24:46;101141.50;;;17.73;48.93
56514;BME280;62152;52.078;8.414;2023-04-08T18:28:47;101146.19;;;17.72;49.16
56514;BME280;62152;52.078;8.414;2023-04-08T18:32:47;101148.13;;;17.72;49.09
56514;BME280;62152;52.078;8.414;2023-04-08T18:36:48;101157.16;;;17.72;48.54
56514;BME280;62152;52.078;8.414;2023-04-08T18:40:50;101159.09;;;17.72;48.71
56514;BME280;62152;52.078;8.414;2023-04-08T18:44:51;101170.88;;;17.72;48.79
56514;BME280;62152;52.078;8.414;2023-04-08T18:48:52;101161.84;;;17.72;48.57
56514;BME280;62152;52.078;8.414;2023-04-08T18:52:53;101175.84;;;17.70;48.83
56514;BME280;62152;52.078;8.414;2023-04-08T18:56:55;101175.84;;;17.70;48.96
56514;BME280;62152;52.078;8.414;2023-04-08T19:00:56;101178.31;;;17.72;48.92
56514;BME280;62152;52.078;8.414;2023-04-08T19:04:57;101182.47;;;17.69;48.60
56514;BME280;62152;52.078;8.414;2023-04-08T19:08:57;101192.31;;;17.70;48.88
56514;BME280;62152;52.078;8.414;2023-04-08T19:13:00;101188.75;;;17.70;48.91
56514;BME280;62152;52.078;8.414;2023-04-08T19:17:01;101190.69;;;17.69;48.91
56514;BME280;62152;52.078;8.414;2023-04-08T19:21:02;101191.50;;;17.70;48.95
56514;BME280;62152;52.078;8.414;2023-04-08T19:25:04;101188.75;;;17.70;48.98
56514;BME280;62152;52.078;8.414;2023-04-08T19:29:07;101192.66;;;17.69;48.63
56514;BME280;62152;52.078;8.414;2023-04-08T19:33:07;101194.59;;;17.68;48.92
56514;BME280;62152;52.078;8.414;2023-04-08T19:37:08;101187.16;;;17.69;49.08
56514;BME280;62152;52.078;8.414;2023-04-08T19:41:09;101189.09;;;17.68;48.79
56514;BME280;62152;52.078;8.414;2023-04-08T19:45:11;101185.22;;;17.69;49.14
56514;BME280;62152;52.078;8.414;2023-04-08T19:49:12;101189.09;;;17.68;49.02
56514;BME280;62152;52.078;8.414;2023-04-08T19:53:13;101183.63;;;17.68;48.97
56514;BME280;62152;52.078;8.414;2023-04-08T19:57:14;101188.31;;;17.68;49.00
56514;BME280;62152;52.078;8.414;2023-04-08T20:01:17;101189.09;;;17.68;48.71
56514;BME280;62152;52.078;8.414;2023-04-08T20:05:18;101191.84;;;17.68;48.91
56514;BME280;62152;52.078;8.414;2023-04-08T20:09:18;101200.88;;;17.69;48.88
56514;BME280;62152;52.078;8.414;2023-04-08T20:13:19;101201.69;;;17.69;48.59
56514;BME280;62152;52.078;8.414;2023-04-08T20:17:21;101200.09;;;17.68;49.00
56514;BME280;62152;52.078;8.414;2023-04-08T20:21:22;101207.16;;;17.69;48.97
56514;BME280;62152;52.078;8.414;2023-04-08T20:25:23;101209.91;;;17.69;49.26
56514;BME280;62152;52.078;8.414;2023-04-08T20:29:24;101208.75;;;17.70;48.77
56514;BME280;62152;52.078;8.414;2023-04-08T20:33:26;101204.78;;;17.68;49.04
56514;BME280;62152;52.078;8.414;2023-04-08T20:37:27;101210.25;;;17.68;48.69
56514;BME280;62152;52.078;8.414;2023-04-08T20:41:28;101209.13;;;17.69;49.11
56514;BME280;62152;52.078;8.414;2023-04-08T20:45:28;101203.97;;;17.67;48.66
56514;BME280;62152;52.078;8.414;2023-04-08T20:49:30;101205.56;;;17.68;48.63
56514;BME280;62152;52.078;8.414;2023-04-08T20:53:31;101212.19;;;17.67;48.84
56514;BME280;62152;52.078;8.414;2023-04-08T20:57:32;101206.72;;;17.67;48.90
56514;BME280;62152;52.078;8.414;2023-04-08T21:01:34;101207.50;;;17.68;48.71
56514;BME280;62152;52.078;8.414;2023-04-08T21:05:37;101203.97;;;17.67;48.68